sensor_id;sensor_type;location;lat;lon;timestamp;pressure;altitude;pressure_sealevel;temperature;humidity
61345;BME280;47216;42.656;23.232;2023-06-22T00:01:21;94356.66;;;17.92;71.26
61345;BME280;47216;42.656;23.232;2023-06-22T00:03:51;94330.69;;;17.75;70.88
61345;BME280;47216;42.656;23.232;2023-06-22T00:06:23;94355.06;;;17.91;70.73
61345;BME280;47216;42.656;23.232;2023-06-22T00:08:53;94348.75;;;17.92;71.40
61345;BME280;47216;42.656;23.232;2023-06-22T00:11:21;94335.38;;;17.83;70.79
61345;BME280;47216;42.656;23.232;2023-06-22T00:13:49;94349.25;;;17.94;70.62
61345;BME280;47216;42.656;23.232;2023-06-22T00:16:18;94342.19;;;17.89;70.79
61345;BME280;47216;42.656;23.232;2023-06-22T00:18:45;94341.03;;;17.95;70.35
61345;BME280;47216;42.656;23.232;2023-06-22T00:21:14;94342.84;;;18.00;70.49
61345;BME280;47216;42.656;23.232;2023-06-22T00:23:42;94332.50;;;18.03;70.22
61345;BME280;47216;42.656;23.232;2023-06-22T00:26:10;94305.75;;;17.91;69.95
61345;BME280;47216;42.656;23.232;2023-06-22T00:28:41;94322.53;;;18.00;69.75
61345;BME280;47216;42.656;23.232;2023-06-22T00:31:09;94323.66;;;17.94;70.11
61345;BME280;47216;42.656;23.232;2023-06-22T00:33:39;94312.19;;;17.80;70.48
61345;BME280;47216;42.656;23.232;2023-06-22T00:36:07;94324.84;;;17.78;70.49
61345;BME280;47216;42.656;23.232;2023-06-22T00:38:39;94334.38;;;17.74;71.02
61345;BME280;47216;42.656;23.232;2023-06-22T00:41:10;94330.19;;;17.73;71.57
61345;BME280;47216;42.656;23.232;2023-06-22T00:43:41;94326.78;;;17.72;71.81
61345;BME280;47216;42.656;23.232;2023-06-22T00:46:08;94328.91;;;17.70;72.11
61345;BME280;47216;42.656;23.232;2023-06-22T00:48:36;94327.03;;;17.71;72.10
61345;BME280;47216;42.656;23.232;2023-06-22T00:51:03;94326.78;;;17.72;71.67
61345;BME280;47216;42.656;23.232;2023-06-22T00:53:31;94322.81;;;17.70;72.33
61345;BME280;47216;42.656;23.232;2023-06-22T00:56:00;94327.44;;;17.59;72.26
61345;BME280;47216;42.656;23.232;2023-06-22T00:58:32;94318.22;;;17.56;72.35
61345;BME280;47216;42.656;23.232;2023-06-22T01:01:00;94320.28;;;17.59;72.38
61345;BME280;47216;42.656;23.232;2023-06-22T01:03:28;94327.69;;;17.57;72.51
61345;BME280;47216;42.656;23.232;2023-06-22T01:06:01;94321.78;;;17.41;72.21
61345;BME280;47216;42.656;23.232;2023-06-22T01:08:33;94339.88;;;17.53;71.93
61345;BME280;47216;42.656;23.232;2023-06-22T01:11:12;94339.00;;;17.63;72.55
61345;BME280;47216;42.656;23.232;2023-06-22T01:13:50;94335.00;;;17.66;73.12
61345;BME280;47216;42.656;23.232;2023-06-22T01:16:23;94352.13;;;17.68;72.75
61345;BME280;47216;42.656;23.232;2023-06-22T01:18:54;94339.78;;;17.63;72.30
61345;BME280;47216;42.656;23.232;2023-06-22T01:21:24;94353.50;;;17.60;72.80
61345;BME280;47216;42.656;23.232;2023-06-22T01:24:01;94341.91;;;17.61;72.75
61345;BME280;47216;42.656;23.232;2023-06-22T01:26:40;94348.28;;;17.55;72.66
61345;BME280;47216;42.656;23.232;2023-06-22T01:29:12;94343.13;;;17.45;72.75
61345;BME280;47216;42.656;23.232;2023-06-22T01:31:42;94349.38;;;17.20;73.05
61345;BME280;47216;42.656;23.232;2023-06-22T01:34:13;94344.94;;;17.15;73.50
61345;BME280;47216;42.656;23.232;2023-06-22T01:36:42;94348.44;;;17.06;74.11
61345;BME280;47216;42.656;23.232;2023-06-22T01:39:12;94353.94;;;17.09;74.32
61345;BME280;47216;42.656;23.232;2023-06-22T01:41:44;94350.78;;;17.12;74.01
61345;BME280;47216;42.656;23.232;2023-06-22T01:44:21;94355.25;;;17.12;73.65
61345;BME280;47216;42.656;23.232;2023-06-22T01:46:51;94346.50;;;17.16;73.59
61345;BME280;47216;42.656;23.232;2023-06-22T01:49:19;94356.50;;;17.19;73.46
61345;BME280;47216;42.656;23.232;2023-06-22T01:51:46;94351.25;;;17.14;73.58
61345;BME280;47216;42.656;23.232;2023-06-22T01:54:16;94364.94;;;17.21;73.94
61345;BME280;47216;42.656;23.232;2023-06-22T01:56:45;94347.63;;;17.10;74.06
61345;BME280;47216;42.656;23.232;2023-06-22T01:59:17;94351.56;;;17.13;74.56
61345;BME280;47216;42.656;23.232;2023-06-22T02:01:53;94359.47;;;17.13;74.54
61345;BME280;47216;42.656;23.232;2023-06-22T02:04:25;94371.84;;;17.12;73.84
61345;BME280;47216;42.656;23.232;2023-06-22T02:06:56;94358.53;;;16.93;74.24
61345;BME280;47216;42.656;23.232;2023-06-22T02:09:28;94377.25;;;16.92;74.34
61345;BME280;47216;42.656;23.232;2023-06-22T02:11:57;94364.66;;;16.78;74.62
61345;BME280;47216;42.656;23.232;2023-06-22T02:14:27;94344.16;;;16.80;74.58
61345;BME280;47216;42.656;23.232;2023-06-22T02:16:56;94362.47;;;16.96;75.01
61345;BME280;47216;42.656;23.232;2023-06-22T02:19:24;94356.19;;;16.92;74.27
61345;BME280;47216;42.656;23.232;2023-06-22T02:21:52;94358.53;;;16.93;74.38
61345;BME280;47216;42.656;23.232;2023-06-22T02:24:19;94364.09;;;16.87;74.84
61345;BME280;47216;42.656;23.232;2023-06-22T02:26:50;94360.97;;;16.85;75.08
61345;BME280;47216;42.656;23.232;2023-06-22T02:29:18;94366.25;;;16.85;75.19
61345;BME280;47216;42.656;23.232;2023-06-22T02:31:47;94360.94;;;16.90;75.13
61345;BME280;47216;42.656;23.232;2023-06-22T02:34:16;94363.81;;;16.93;74.88
61345;BME280;47216;42.656;23.232;2023-06-22T02:36:46;94363.63;;;16.79;75.06
61345;BME280;47216;42.656;23.232;2023-06-22T02:39:18;94360.47;;;16.83;75.24
61345;BME280;47216;42.656;23.232;2023-06-22T02:41:45;94359.16;;;16.75;75.31
61345;BME280;47216;42.656;23.232;2023-06-22T02:44:13;94356.06;;;16.63;75.60
61345;BME280;47216;42.656;23.232;2023-06-22T02:46:45;94355.84;;;16.59;75.57
61345;BME280;47216;42.656;23.232;2023-06-22T02:49:16;94354.78;;;16.60;75.98
61345;BME280;47216;42.656;23.232;2023-06-22T02:51:46;94357.66;;;16.58;76.21
61345;BME280;47216;42.656;23.232;2023-06-22T02:54:13;94351.59;;;16.63;75.97
61345;BME280;47216;42.656;23.232;2023-06-22T02:56:41;94348.94;;;16.63;75.94
61345;BME280;47216;42.656;23.232;2023-06-22T02:59:10;94352.63;;;16.67;75.98
61345;BME280;47216;42.656;23.232;2023-06-22T03:01:37;94352.09;;;16.65;75.88
61345;BME280;47216;42.656;23.232;2023-06-22T03:04:06;94347.63;;;16.66;76.38
61345;BME280;47216;42.656;23.232;2023-06-22T03:06:40;94351.34;;;16.59;76.56
61345;BME280;47216;42.656;23.232;2023-06-22T03:09:08;94348.44;;;16.66;76.45
61345;BME280;47216;42.656;23.232;2023-06-22T03:11:36;94363.66;;;16.69;76.39
61345;BME280;47216;42.656;23.232;2023-06-22T03:14:05;94340.88;;;16.54;76.53
61345;BME280;47216;42.656;23.232;2023-06-22T03:16:33;94365.75;;;16.77;76.49
61345;BME280;47216;42.656;23.232;2023-06-22T03:19:00;94379.91;;;16.92;76.04
61345;BME280;47216;42.656;23.232;2023-06-22T03:21:28;94378.59;;;16.89;75.22
61345;BME280;47216;42.656;23.232;2023-06-22T03:24:00;94377.78;;;16.89;76.00
61345;BME280;47216;42.656;23.232;2023-06-22T03:26:28;94378.03;;;16.92;76.44
61345;BME280;47216;42.656;23.232;2023-06-22T03:32:01;94373.63;;;16.83;76.09
61345;BME280;47216;42.656;23.232;2023-06-22T03:34:49;94371.75;;;16.88;76.10
61345;BME280;47216;42.656;23.232;2023-06-22T03:37:37;94395.88;;;17.00;76.27
61345;BME280;47216;42.656;23.232;2023-06-22T03:40:28;94400.28;;;17.15;76.28
61345;BME280;47216;42.656;23.232;2023-06-22T03:43:28;94401.50;;;17.28;76.42
61345;BME280;47216;42.656;23.232;2023-06-22T03:46:18;94405.16;;;17.32;76.79
61345;BME280;47216;42.656;23.232;2023-06-22T03:49:01;94404.34;;;17.37;76.42
61345;BME280;47216;42.656;23.232;2023-06-22T03:51:46;94407.94;;;17.46;76.25
61345;BME280;47216;42.656;23.232;2023-06-22T03:54:31;94415.81;;;17.51;76.39
61345;BME280;47216;42.656;23.232;2023-06-22T03:57:27;94403.81;;;17.40;76.72
61345;BME280;47216;42.656;23.232;2023-06-22T04:00:01;94410.06;;;17.44;76.65
61345;BME280;47216;42.656;23.232;2023-06-22T04:02:52;94407.44;;;17.44;76.31
61345;BME280;47216;42.656;23.232;2023-06-22T04:05:31;94402.47;;;17.42;76.88
61345;BME280;47216;42.656;23.232;2023-06-22T04:08:15;94399.00;;;17.47;77.34
61345;BME280;47216;42.656;23.232;2023-06-22T04:10:56;94395.84;;;17.45;77.24
61345;BME280;47216;42.656;23.232;2023-06-22T04:13:40;94385.97;;;17.56;77.26
61345;BME280;47216;42.656;23.232;2023-06-22T04:16:31;94377.75;;;17.62;77.11
61345;BME280;47216;42.656;23.232;2023-06-22T04:19:22;94377.66;;;17.73;76.87
61345;BME280;47216;42.656;23.232;2023-06-22T04:22:02;94375.03;;;17.73;76.93
61345;BME280;47216;42.656;23.232;2023-06-22T04:24:51;94379.75;;;17.76;76.86
61345;BME280;47216;42.656;23.232;2023-06-22T04:27:32;94370.69;;;17.87;76.63
61345;BME280;47216;42.656;23.232;2023-06-22T04:30:32;94366.66;;;17.95;76.68
61345;BME280;47216;42.656;23.232;2023-06-22T04:33:02;94368.63;;;18.08;76.30
61345;BME280;47216;42.656;23.232;2023-06-22T04:35:53;94375.81;;;18.26;76.04
61345;BME280;47216;42.656;23.232;2023-06-22T04:38:35;94368.22;;;18.44;76.09
61345;BME280;47216;42.656;23.232;2023-06-22T04:41:12;94364.00;;;18.62;76.09
61345;BME280;47216;42.656;23.232;2023-06-22T04:44:06;94371.19;;;18.80;76.10
61345;BME280;47216;42.656;23.232;2023-06-22T04:46:43;94356.91;;;18.81;76.30
61345;BME280;47216;42.656;23.232;2023-06-22T04:49:29;94377.09;;;19.10;76.19
61345;BME280;47216;42.656;23.232;2023-06-22T04:52:10;94394.28;;;19.26;75.73
61345;BME280;47216;42.656;23.232;2023-06-22T04:54:43;94391.00;;;19.35;75.34
61345;BME280;47216;42.656;23.232;2023-06-22T05:00:23;94391.25;;;19.52;74.13
61345;BME280;47216;42.656;23.232;2023-06-22T05:03:13;94394.22;;;19.64;73.74
61345;BME280;47216;42.656;23.232;2023-06-22T05:05:58;94384.59;;;19.73;73.62
61345;BME280;47216;42.656;23.232;2023-06-22T05:08:41;94383.34;;;19.85;72.82
61345;BME280;47216;42.656;23.232;2023-06-22T05:11:13;94385.28;;;19.93;72.35
61345;BME280;47216;42.656;23.232;2023-06-22T05:13:52;94378.25;;;20.02;73.06
61345;BME280;47216;42.656;23.232;2023-06-22T05:16:26;94379.50;;;20.19;73.32
61345;BME280;47216;42.656;23.232;2023-06-22T05:19:34;94377.75;;;20.28;73.89
61345;BME280;47216;42.656;23.232;2023-06-22T05:22:06;94376.25;;;20.35;73.38
61345;BME280;47216;42.656;23.232;2023-06-22T05:24:53;94343.91;;;20.25;71.34
61345;BME280;47216;42.656;23.232;2023-06-22T05:27:28;94381.56;;;20.63;69.24
61345;BME280;47216;42.656;23.232;2023-06-22T05:29:57;94389.03;;;20.75;68.97
61345;BME280;47216;42.656;23.232;2023-06-22T05:32:36;94382.59;;;20.90;69.85
61345;BME280;47216;42.656;23.232;2023-06-22T05:35:16;94384.13;;;21.05;68.12
61345;BME280;47216;42.656;23.232;2023-06-22T05:38:04;94391.84;;;21.15;68.15
61345;BME280;47216;42.656;23.232;2023-06-22T05:40:37;94397.53;;;21.22;68.57
61345;BME280;47216;42.656;23.232;2023-06-22T05:43:08;94406.69;;;21.38;68.53
61345;BME280;47216;42.656;23.232;2023-06-22T05:45:51;94411.63;;;21.45;68.82
61345;BME280;47216;42.656;23.232;2023-06-22T05:48:34;94411.78;;;21.49;68.99
61345;BME280;47216;42.656;23.232;2023-06-22T05:51:25;94407.63;;;21.56;68.50
61345;BME280;47216;42.656;23.232;2023-06-22T05:54:13;94424.47;;;21.74;68.48
61345;BME280;47216;42.656;23.232;2023-06-22T05:57:06;94427.94;;;21.84;67.81
61345;BME280;47216;42.656;23.232;2023-06-22T05:59:44;94428.41;;;21.86;68.01
61345;BME280;47216;42.656;23.232;2023-06-22T06:02:33;94424.25;;;21.93;67.71
61345;BME280;47216;42.656;23.232;2023-06-22T06:05:12;94416.44;;;21.97;67.23
61345;BME280;47216;42.656;23.232;2023-06-22T06:07:57;94415.84;;;22.00;66.88
61345;BME280;47216;42.656;23.232;2023-06-22T06:10:36;94416.34;;;22.11;67.17
61345;BME280;47216;42.656;23.232;2023-06-22T06:13:11;94416.13;;;22.21;67.04
61345;BME280;47216;42.656;23.232;2023-06-22T06:16:06;94412.56;;;22.26;65.35
61345;BME280;47216;42.656;23.232;2023-06-22T06:18:42;94412.94;;;22.41;65.37
61345;BME280;47216;42.656;23.232;2023-06-22T06:21:19;94406.38;;;22.48;65.02
61345;BME280;47216;42.656;23.232;2023-06-22T06:23:56;94408.91;;;22.61;64.55
61345;BME280;47216;42.656;23.232;2023-06-22T06:26:40;94398.00;;;22.72;65.23
61345;BME280;47216;42.656;23.232;2023-06-22T06:29:13;94404.41;;;22.79;64.90
61345;BME280;47216;42.656;23.232;2023-06-22T06:31:47;94403.00;;;22.82;65.46
61345;BME280;47216;42.656;23.232;2023-06-22T06:34:35;94396.44;;;22.88;66.23
61345;BME280;47216;42.656;23.232;2023-06-22T06:37:16;94364.69;;;22.83;65.91
61345;BME280;47216;42.656;23.232;2023-06-22T06:39:56;94382.56;;;23.17;64.89
61345;BME280;47216;42.656;23.232;2023-06-22T06:42:32;94388.97;;;23.34;64.45
61345;BME280;47216;42.656;23.232;2023-06-22T06:45:01;94392.41;;;23.52;64.62
61345;BME280;47216;42.656;23.232;2023-06-22T06:47:35;94392.09;;;23.62;64.87
61345;BME280;47216;42.656;23.232;2023-06-22T06:50:21;94386.59;;;23.76;63.61
61345;BME280;47216;42.656;23.232;2023-06-22T06:53:00;94370.91;;;23.83;63.91
61345;BME280;47216;42.656;23.232;2023-06-22T06:55:58;94362.09;;;23.91;63.48
61345;BME280;47216;42.656;23.232;2023-06-22T06:58:40;94377.84;;;24.14;63.40
61345;BME280;47216;42.656;23.232;2023-06-22T07:01:23;94379.94;;;24.08;63.76
61345;BME280;47216;42.656;23.232;2023-06-22T07:03:53;94376.25;;;24.21;62.31
61345;BME280;47216;42.656;23.232;2023-06-22T07:06:24;94373.53;;;24.30;62.61
61345;BME280;47216;42.656;23.232;2023-06-22T07:08:55;94381.97;;;24.41;62.24
61345;BME280;47216;42.656;23.232;2023-06-22T07:11:25;94378.66;;;24.44;64.10
61345;BME280;47216;42.656;23.232;2023-06-22T07:13:53;94378.53;;;24.40;64.95
61345;BME280;47216;42.656;23.232;2023-06-22T07:16:26;94358.97;;;24.27;63.57
61345;BME280;47216;42.656;23.232;2023-06-22T07:18:55;94387.41;;;24.53;63.64
61345;BME280;47216;42.656;23.232;2023-06-22T07:21:25;94377.44;;;24.71;63.09
61345;BME280;47216;42.656;23.232;2023-06-22T07:23:52;94374.56;;;24.76;61.84
61345;BME280;47216;42.656;23.232;2023-06-22T07:26:20;94381.66;;;24.93;62.73
61345;BME280;47216;42.656;23.232;2023-06-22T07:28:51;94382.94;;;24.95;58.89
61345;BME280;47216;42.656;23.232;2023-06-22T07:31:19;94380.59;;;24.94;58.31
61345;BME280;47216;42.656;23.232;2023-06-22T07:33:48;94380.78;;;24.89;58.83
61345;BME280;47216;42.656;23.232;2023-06-22T07:36:16;94385.41;;;25.01;59.00
61345;BME280;47216;42.656;23.232;2023-06-22T07:38:44;94390.75;;;25.01;59.37
61345;BME280;47216;42.656;23.232;2023-06-22T07:41:12;94384.63;;;25.00;58.70
61345;BME280;47216;42.656;23.232;2023-06-22T07:43:39;94386.97;;;25.23;59.73
61345;BME280;47216;42.656;23.232;2023-06-22T07:46:08;94385.41;;;25.43;61.04
61345;BME280;47216;42.656;23.232;2023-06-22T07:48:37;94389.94;;;25.63;60.89
61345;BME280;47216;42.656;23.232;2023-06-22T07:51:04;94365.97;;;25.54;60.44
61345;BME280;47216;42.656;23.232;2023-06-22T07:53:32;94397.44;;;25.82;59.02
61345;BME280;47216;42.656;23.232;2023-06-22T07:56:00;94393.22;;;25.81;58.28
61345;BME280;47216;42.656;23.232;2023-06-22T07:58:32;94376.41;;;25.47;59.13
61345;BME280;47216;42.656;23.232;2023-06-22T08:01:01;94392.38;;;25.68;61.00
61345;BME280;47216;42.656;23.232;2023-06-22T08:03:30;94385.63;;;25.83;61.85
61345;BME280;47216;42.656;23.232;2023-06-22T08:05:57;94384.75;;;25.79;61.97
61345;BME280;47216;42.656;23.232;2023-06-22T08:08:24;94379.84;;;25.81;62.05
61345;BME280;47216;42.656;23.232;2023-06-22T08:10:51;94376.38;;;25.81;61.89
61345;BME280;47216;42.656;23.232;2023-06-22T08:13:18;94368.25;;;25.77;59.87
61345;BME280;47216;42.656;23.232;2023-06-22T08:15:45;94383.25;;;25.90;60.38
61345;BME280;47216;42.656;23.232;2023-06-22T08:18:12;94372.78;;;25.97;60.43
61345;BME280;47216;42.656;23.232;2023-06-22T08:20:40;94367.63;;;25.92;61.50
61345;BME280;47216;42.656;23.232;2023-06-22T08:23:07;94373.88;;;25.96;63.46
61345;BME280;47216;42.656;23.232;2023-06-22T08:25:34;94371.25;;;26.09;62.78
61345;BME280;47216;42.656;23.232;2023-06-22T08:28:03;94371.25;;;26.21;60.10
61345;BME280;47216;42.656;23.232;2023-06-22T08:30:30;94367.03;;;26.32;60.57
61345;BME280;47216;42.656;23.232;2023-06-22T08:32:57;94363.00;;;26.38;60.55
61345;BME280;47216;42.656;23.232;2023-06-22T08:35:25;94368.81;;;26.53;58.68
61345;BME280;47216;42.656;23.232;2023-06-22T08:37:54;94362.13;;;26.59;58.91
61345;BME280;47216;42.656;23.232;2023-06-22T08:40:22;94351.19;;;26.64;59.84
61345;BME280;47216;42.656;23.232;2023-06-22T08:42:50;94373.25;;;26.86;58.21
61345;BME280;47216;42.656;23.232;2023-06-22T08:45:17;94363.66;;;26.85;57.76
61345;BME280;47216;42.656;23.232;2023-06-22T08:47:45;94351.84;;;26.86;56.89
61345;BME280;47216;42.656;23.232;2023-06-22T08:50:14;94369.19;;;27.04;56.43
61345;BME280;47216;42.656;23.232;2023-06-22T08:52:43;94351.16;;;26.89;55.71
61345;BME280;47216;42.656;23.232;2023-06-22T08:55:13;94338.69;;;26.80;56.71
61345;BME280;47216;42.656;23.232;2023-06-22T08:57:40;94356.47;;;27.01;57.60
61345;BME280;47216;42.656;23.232;2023-06-22T09:00:11;94339.31;;;27.02;55.74
61345;BME280;47216;42.656;23.232;2023-06-22T09:02:47;94322.94;;;26.91;54.51
61345;BME280;47216;42.656;23.232;2023-06-22T09:05:16;94319.78;;;27.01;53.30
61345;BME280;47216;42.656;23.232;2023-06-22T09:07:46;94332.09;;;27.18;55.32
61345;BME280;47216;42.656;23.232;2023-06-22T09:10:16;94339.63;;;27.41;54.31
61345;BME280;47216;42.656;23.232;2023-06-22T09:12:45;94343.63;;;27.47;54.78
61345;BME280;47216;42.656;23.232;2023-06-22T09:15:12;94345.19;;;27.48;54.26
61345;BME280;47216;42.656;23.232;2023-06-22T09:17:41;94348.38;;;27.54;51.08
61345;BME280;47216;42.656;23.232;2023-06-22T09:20:10;94352.38;;;27.60;49.79
61345;BME280;47216;42.656;23.232;2023-06-22T09:22:39;94343.81;;;27.70;50.91
61345;BME280;47216;42.656;23.232;2023-06-22T09:25:07;94339.50;;;27.65;51.17
61345;BME280;47216;42.656;23.232;2023-06-22T09:27:37;94351.38;;;27.80;49.98
61345;BME280;47216;42.656;23.232;2023-06-22T09:30:06;94349.03;;;27.79;48.17
61345;BME280;47216;42.656;23.232;2023-06-22T09:32:33;94350.25;;;27.81;48.57
61345;BME280;47216;42.656;23.232;2023-06-22T09:35:03;94359.53;;;27.84;49.88
61345;BME280;47216;42.656;23.232;2023-06-22T09:37:31;94354.00;;;27.93;48.17
61345;BME280;47216;42.656;23.232;2023-06-22T09:39:58;94349.19;;;27.98;46.05
61345;BME280;47216;42.656;23.232;2023-06-22T09:42:25;94351.47;;;27.84;47.75
61345;BME280;47216;42.656;23.232;2023-06-22T09:44:53;94348.16;;;27.75;46.86
61345;BME280;47216;42.656;23.232;2023-06-22T09:47:21;94325.16;;;27.74;48.37
61345;BME280;47216;42.656;23.232;2023-06-22T09:49:48;94353.41;;;27.99;50.49
61345;BME280;47216;42.656;23.232;2023-06-22T09:52:15;94345.09;;;28.04;47.33
61345;BME280;47216;42.656;23.232;2023-06-22T09:54:43;94347.44;;;27.90;45.47
61345;BME280;47216;42.656;23.232;2023-06-22T09:57:09;94338.13;;;27.72;46.83
61345;BME280;47216;42.656;23.232;2023-06-22T09:59:36;94319.13;;;27.77;48.49
61345;BME280;47216;42.656;23.232;2023-06-22T10:02:07;94340.53;;;27.89;45.69
61345;BME280;47216;42.656;23.232;2023-06-22T10:04:35;94340.25;;;27.94;48.29
61345;BME280;47216;42.656;23.232;2023-06-22T10:07:02;94335.34;;;28.12;47.30
61345;BME280;47216;42.656;23.232;2023-06-22T10:09:29;94327.81;;;28.18;49.13
61345;BME280;47216;42.656;23.232;2023-06-22T10:11:56;94340.44;;;28.33;47.15
61345;BME280;47216;42.656;23.232;2023-06-22T10:14:24;94337.19;;;28.43;46.49
61345;BME280;47216;42.656;23.232;2023-06-22T10:16:52;94317.56;;;28.39;46.44
61345;BME280;47216;42.656;23.232;2023-06-22T10:19:21;94332.59;;;28.60;46.64
61345;BME280;47216;42.656;23.232;2023-06-22T10:21:48;94322.47;;;28.69;46.15
61345;BME280;47216;42.656;23.232;2023-06-22T10:24:15;94331.53;;;28.80;46.03
61345;BME280;47216;42.656;23.232;2023-06-22T10:26:42;94327.88;;;28.88;47.47
61345;BME280;47216;42.656;23.232;2023-06-22T10:29:09;94325.59;;;28.90;46.74
61345;BME280;47216;42.656;23.232;2023-06-22T10:31:36;94328.16;;;29.03;45.46
61345;BME280;47216;42.656;23.232;2023-06-22T10:34:03;94325.91;;;29.05;43.85
61345;BME280;47216;42.656;23.232;2023-06-22T10:36:31;94320.31;;;29.14;43.53
61345;BME280;47216;42.656;23.232;2023-06-22T10:38:59;94310.81;;;29.16;44.20
61345;BME280;47216;42.656;23.232;2023-06-22T10:41:28;94321.25;;;29.21;44.55
61345;BME280;47216;42.656;23.232;2023-06-22T10:43:56;94320.19;;;29.26;42.13
61345;BME280;47216;42.656;23.232;2023-06-22T10:46:24;94320.13;;;29.22;42.55
61345;BME280;47216;42.656;23.232;2023-06-22T10:48:53;94308.13;;;29.16;41.68
61345;BME280;47216;42.656;23.232;2023-06-22T10:51:24;94314.88;;;29.29;43.53
61345;BME280;47216;42.656;23.232;2023-06-22T10:53:56;94303.91;;;29.38;45.38
61345;BME280;47216;42.656;23.232;2023-06-22T10:56:25;94304.81;;;29.46;43.03
61345;BME280;47216;42.656;23.232;2023-06-22T10:58:53;94289.63;;;29.34;44.16
61345;BME280;47216;42.656;23.232;2023-06-22T11:01:21;94299.09;;;29.47;44.69
61345;BME280;47216;42.656;23.232;2023-06-22T11:03:50;94303.22;;;29.64;44.88
61345;BME280;47216;42.656;23.232;2023-06-22T11:06:17;94287.81;;;29.61;43.64
61345;BME280;47216;42.656;23.232;2023-06-22T11:08:45;94306.59;;;29.81;42.95
61345;BME280;47216;42.656;23.232;2023-06-22T11:11:16;94302.06;;;29.85;42.18
61345;BME280;47216;42.656;23.232;2023-06-22T11:13:44;94296.69;;;29.85;43.78
61345;BME280;47216;42.656;23.232;2023-06-22T11:16:12;94296.53;;;29.97;41.05
61345;BME280;47216;42.656;23.232;2023-06-22T11:18:40;94295.06;;;29.80;41.76
61345;BME280;47216;42.656;23.232;2023-06-22T11:21:07;94292.16;;;29.89;43.76
61345;BME280;47216;42.656;23.232;2023-06-22T11:23:36;94287.66;;;29.97;43.36
61345;BME280;47216;42.656;23.232;2023-06-22T11:26:03;94288.03;;;29.95;41.65
61345;BME280;47216;42.656;23.232;2023-06-22T11:28:34;94294.63;;;30.01;42.74
61345;BME280;47216;42.656;23.232;2023-06-22T11:31:03;94287.47;;;30.09;41.75
61345;BME280;47216;42.656;23.232;2023-06-22T11:33:34;94286.44;;;30.17;41.15
61345;BME280;47216;42.656;23.232;2023-06-22T11:36:04;94279.69;;;30.27;40.24
61345;BME280;47216;42.656;23.232;2023-06-22T11:38:33;94280.53;;;30.31;42.29
61345;BME280;47216;42.656;23.232;2023-06-22T11:41:02;94285.97;;;30.34;41.59
61345;BME280;47216;42.656;23.232;2023-06-22T11:43:30;94282.63;;;30.45;42.60
61345;BME280;47216;42.656;23.232;2023-06-22T11:46:02;94282.69;;;30.48;42.85
61345;BME280;47216;42.656;23.232;2023-06-22T11:48:30;94277.66;;;30.47;42.86
61345;BME280;47216;42.656;23.232;2023-06-22T11:50:59;94264.84;;;30.36;41.16
61345;BME280;47216;42.656;23.232;2023-06-22T11:53:29;94272.97;;;30.40;42.30
61345;BME280;47216;42.656;23.232;2023-06-22T11:55:57;94279.69;;;30.27;45.51
61345;BME280;47216;42.656;23.232;2023-06-22T11:58:26;94277.06;;;30.07;46.09
61345;BME280;47216;42.656;23.232;2023-06-22T12:00:57;94285.44;;;30.02;45.06
61345;BME280;47216;42.656;23.232;2023-06-22T12:03:29;94286.47;;;29.94;44.35
61345;BME280;47216;42.656;23.232;2023-06-22T12:05:58;94271.25;;;29.79;44.38
61345;BME280;47216;42.656;23.232;2023-06-22T12:08:26;94289.00;;;29.83;47.18
61345;BME280;47216;42.656;23.232;2023-06-22T12:10:54;94305.78;;;29.77;50.31
61345;BME280;47216;42.656;23.232;2023-06-22T12:13:25;94308.53;;;29.61;51.21
61345;BME280;47216;42.656;23.232;2023-06-22T12:15:55;94328.88;;;29.39;52.42
61345;BME280;47216;42.656;23.232;2023-06-22T12:18:23;94335.50;;;29.06;53.62
61345;BME280;47216;42.656;23.232;2023-06-22T12:20:54;94338.38;;;28.78;55.12
61345;BME280;47216;42.656;23.232;2023-06-22T12:23:22;94338.34;;;28.42;58.74
61345;BME280;47216;42.656;23.232;2023-06-22T12:25:52;94334.03;;;28.22;60.87
61345;BME280;47216;42.656;23.232;2023-06-22T12:28:20;94316.97;;;27.82;59.85
61345;BME280;47216;42.656;23.232;2023-06-22T12:30:51;94337.25;;;27.67;59.55
61345;BME280;47216;42.656;23.232;2023-06-22T12:33:18;94361.50;;;27.43;61.40
61345;BME280;47216;42.656;23.232;2023-06-22T12:35:46;94379.50;;;26.40;64.37
61345;BME280;47216;42.656;23.232;2023-06-22T12:38:16;94355.50;;;25.49;64.25
61345;BME280;47216;42.656;23.232;2023-06-22T12:40:44;94370.38;;;24.75;66.61
61345;BME280;47216;42.656;23.232;2023-06-22T12:43:14;94358.44;;;24.13;67.61
61345;BME280;47216;42.656;23.232;2023-06-22T12:45:43;94338.50;;;23.81;69.52
61345;BME280;47216;42.656;23.232;2023-06-22T12:48:12;94320.19;;;23.62;71.80
61345;BME280;47216;42.656;23.232;2023-06-22T12:50:42;94326.97;;;23.42;71.87
61345;BME280;47216;42.656;23.232;2023-06-22T12:53:09;94337.91;;;23.40;73.31
61345;BME280;47216;42.656;23.232;2023-06-22T12:55:41;94339.19;;;23.34;73.18
61345;BME280;47216;42.656;23.232;2023-06-22T12:58:10;94335.78;;;23.25;74.20
61345;BME280;47216;42.656;23.232;2023-06-22T13:00:42;94335.28;;;23.23;73.68
61345;BME280;47216;42.656;23.232;2023-06-22T13:03:09;94336.84;;;23.15;75.75
61345;BME280;47216;42.656;23.232;2023-06-22T13:05:38;94323.09;;;23.04;75.31
61345;BME280;47216;42.656;23.232;2023-06-22T13:08:05;94330.16;;;23.09;75.62
61345;BME280;47216;42.656;23.232;2023-06-22T13:10:33;94330.59;;;23.28;75.86
61345;BME280;47216;42.656;23.232;2023-06-22T13:13:04;94335.41;;;23.53;75.40
61345;BME280;47216;42.656;23.232;2023-06-22T13:15:33;94336.00;;;23.67;75.30
61345;BME280;47216;42.656;23.232;2023-06-22T13:18:02;94332.38;;;23.80;75.14
61345;BME280;47216;42.656;23.232;2023-06-22T13:20:31;94334.25;;;23.80;75.32
61345;BME280;47216;42.656;23.232;2023-06-22T13:23:00;94339.25;;;23.81;75.57